Overview Statistics Trail Chart Weather Telemetry Raw packets
 

This is the latest recevied weather packets stored in our database for station/object xx2mm-12. If no packets are shown the sender has not sent any weather packets the latest 10 day(s).

<< 213 214 215 216 217 218 219 >>
Time Temp. Humidity Pressure Rain* Wind** Luminosity Snow
1777193120 28.33° C 69% 992.1 hPa - - - -
1777193023 28.33° C 69% 992.1 hPa - - - -
1777192926 28.33° C 67% 992.1 hPa - - - -
1777192826 28.33° C 66% 992.2 hPa - - - -
1777192730 28.33° C 66% 992.2 hPa - - - -
1777192633 28.33° C 67% 992.2 hPa - - - -
1777192536 -51.67° C 1% 65.1 hPa - - - -
1777192439 28.33° C 68% 992.2 hPa - - - -
1777192343 28.33° C 68% 992.2 hPa - - - -
1777192246 28.33° C 67% 992.2 hPa - - - -
1777192149 28.33° C 67% 992.2 hPa - - - -
1777192053 28.33° C 67% 992.2 hPa - - - -
1777191956 28.33° C 66% 992.2 hPa - - - -
1777191859 28.33° C 66% 992.2 hPa - - - -
1777191762 28.33° C 67% 992.3 hPa - - - -
1777191665 28.33° C 66% 992.3 hPa - - - -
1777191569 28.33° C 65% 992.3 hPa - - - -
1777191473 -38.89° C 65% 65.1 hPa - - - -
1777191376 28.33° C 65% 992.3 hPa - - - -
1777191279 28.33° C 64% 992.3 hPa - - - -
1777191183 28.89° C 64% 992.4 hPa - - - -
1777191086 28.89° C 64% 992.4 hPa - - - -
1777190990 28.89° C 64% 992.4 hPa - - - -
1777190893 28.89° C 66% 992.4 hPa - - - -
1777190796 28.89° C 65% 992.4 hPa - - - -

* Rain since midnight (hover to see other rain measurements)
** Current wind speed in m/s (hover to see current wind gust speed)